createdAt,value
2017-01-28T00:00:18.434Z,-2.9
2017-01-28T00:01:29.105Z,-3.04
2017-01-28T00:02:39.784Z,-3.04
2017-01-28T00:03:50.458Z,-3.2
2017-01-28T00:05:00.735Z,-3.25
2017-01-28T00:06:11.009Z,-3.3
2017-01-28T00:07:21.678Z,-3.26
2017-01-28T00:08:32.352Z,-3.38
2017-01-28T00:09:43.028Z,-3.4
2017-01-28T00:10:53.720Z,-3.44
2017-01-28T00:12:04.393Z,-3.37
2017-01-28T00:13:15.063Z,-3.41
2017-01-28T00:14:25.337Z,-3.43
2017-01-28T00:15:36.005Z,-3.4
2017-01-28T00:16:46.704Z,-3.41
2017-01-28T00:17:57.380Z,-3.46
2017-01-28T00:19:08.050Z,-3.48
2017-01-28T00:20:17.921Z,-3.46
2017-01-28T00:21:27.797Z,-3.47
2017-01-28T00:22:38.471Z,-3.46
2017-01-28T00:23:49.145Z,-3.41
2017-01-28T00:24:59.814Z,-3.4
2017-01-28T00:26:10.118Z,-3.38
2017-01-28T00:27:20.790Z,-3.38
2017-01-28T00:28:31.470Z,-3.26
2017-01-28T00:29:41.766Z,-3.25
2017-01-28T00:30:52.437Z,-3.29
2017-01-28T00:32:03.108Z,-3.14
2017-01-28T00:33:13.389Z,-3.17
2017-01-28T00:34:23.665Z,-3.23
2017-01-28T00:35:34.335Z,-3.19
2017-01-28T00:36:45.013Z,-3.15
2017-01-28T00:37:55.697Z,-3.08
2017-01-28T00:39:06.363Z,-3.07
2017-01-28T00:40:16.636Z,-2.98
2017-01-28T00:41:26.906Z,-2.99
2017-01-28T00:42:37.595Z,-3.02
2017-01-28T00:43:47.874Z,-2.98
2017-01-28T00:44:58.546Z,-3.01
2017-01-28T00:46:08.816Z,-2.94
2017-01-28T00:47:19.084Z,-2.89
2017-01-28T00:48:29.756Z,-2.86
2017-01-28T00:49:40.435Z,-2.83
2017-01-28T00:50:50.711Z,-2.9
2017-01-28T00:52:01.378Z,-2.89
2017-01-28T00:53:12.048Z,-2.91
2017-01-28T00:54:22.715Z,-2.86
2017-01-28T00:55:33.389Z,-2.84
2017-01-28T00:56:43.660Z,-2.73
2017-01-28T00:57:54.350Z,-2.76
2017-01-28T00:59:05.023Z,-2.78
2017-01-28T01:00:15.306Z,-2.78
2017-01-28T01:01:25.982Z,-2.73
2017-01-28T01:02:36.646Z,-2.65
2017-01-28T01:03:47.321Z,-2.58
2017-01-28T01:04:57.995Z,-2.68
2017-01-28T01:06:08.274Z,-2.66
2017-01-28T01:07:18.944Z,-2.54
2017-01-28T01:08:29.620Z,-2.57
2017-01-28T01:09:40.292Z,-2.63
2017-01-28T01:10:50.567Z,-2.62
2017-01-28T01:12:01.244Z,-2.61
2017-01-28T01:13:11.124Z,-2.55
2017-01-28T01:14:21.805Z,-2.54
2017-01-28T01:15:32.503Z,-2.63
2017-01-28T01:16:43.175Z,-2.61
2017-01-28T01:17:53.846Z,-2.54
2017-01-28T01:19:04.520Z,-2.58
2017-01-28T01:20:14.799Z,-2.61
2017-01-28T01:21:25.468Z,-2.51
2017-01-28T01:22:36.146Z,-2.55
2017-01-28T01:23:46.821Z,-2.51
2017-01-28T01:24:57.494Z,-2.51
2017-01-28T01:26:08.172Z,-2.52
2017-01-28T01:27:18.046Z,-2.47
2017-01-28T01:28:28.711Z,-2.45
2017-01-28T01:29:39.386Z,-2.45
2017-01-28T01:30:49.663Z,-2.42
2017-01-28T01:32:00.332Z,-2.37
2017-01-28T01:33:11.003Z,-2.39
2017-01-28T01:34:21.308Z,-2.39
2017-01-28T01:35:31.986Z,-2.44
2017-01-28T01:36:42.663Z,-2.34
2017-01-28T01:37:53.335Z,-2.34
2017-01-28T01:39:04.002Z,-2.33
2017-01-28T01:40:14.284Z,-2.33
2017-01-28T01:41:24.953Z,-2.28
2017-01-28T01:42:35.264Z,-2.36
2017-01-28T01:43:45.939Z,-2.25
2017-01-28T01:44:56.607Z,-2.2
2017-01-28T01:46:07.279Z,-2.2
2017-01-28T01:47:17.154Z,-2.22
2017-01-28T01:48:27.820Z,-2.23
2017-01-28T01:49:38.121Z,-2.2
2017-01-28T01:50:48.799Z,-2.18
2017-01-28T01:51:59.472Z,-2.23
2017-01-28T01:53:10.175Z,-2.18
2017-01-28T01:54:20.842Z,-2.14
2017-01-28T01:55:31.508Z,-2.26
2017-01-28T01:56:42.180Z,-2.22
2017-01-28T01:57:52.850Z,-2.23
2017-01-28T01:59:03.532Z,-2.25
2017-01-28T02:00:13.808Z,-2.22
2017-01-28T02:01:24.477Z,-2.15
2017-01-28T02:02:34.750Z,-2.25
2017-01-28T02:03:45.029Z,-2.18
2017-01-28T02:04:55.706Z,-2.18
2017-01-28T02:06:06.384Z,-2.25
2017-01-28T02:07:16.661Z,-2.29
2017-01-28T02:08:27.334Z,-2.28
2017-01-28T02:09:38.008Z,-2.2
2017-01-28T02:10:48.687Z,-2.17
2017-01-28T02:11:59.360Z,-2.13
2017-01-28T02:13:10.038Z,-2.25
2017-01-28T02:14:20.717Z,-2.17
2017-01-28T02:15:31.388Z,-2.15
2017-01-28T02:16:42.063Z,-2.25
2017-01-28T02:17:52.755Z,-2.22
2017-01-28T02:19:03.033Z,-2.22
2017-01-28T02:20:13.305Z,-2.2
2017-01-28T02:21:23.981Z,-2.18
2017-01-28T02:22:34.654Z,-2.2
2017-01-28T02:23:44.936Z,-2.22
2017-01-28T02:24:55.607Z,-2.29
2017-01-28T02:26:05.883Z,-2.28
2017-01-28T02:27:16.165Z,-2.33
2017-01-28T02:28:26.848Z,-2.39
2017-01-28T02:29:37.528Z,-2.4
2017-01-28T02:30:48.216Z,-2.39
2017-01-28T02:31:58.892Z,-2.54
2017-01-28T02:33:09.174Z,-2.42
2017-01-28T02:34:19.847Z,-2.45
2017-01-28T02:35:30.526Z,-2.44
2017-01-28T02:36:41.203Z,-2.4
2017-01-28T02:37:51.879Z,-2.45
2017-01-28T02:39:02.552Z,-2.39
2017-01-28T02:40:13.230Z,-2.39
2017-01-28T02:41:23.907Z,-2.39
2017-01-28T02:42:34.582Z,-2.52
2017-01-28T02:43:45.261Z,-2.61
2017-01-28T02:44:55.934Z,-2.52
2017-01-28T02:46:06.612Z,-2.51
2017-01-28T02:47:17.308Z,-2.51
2017-01-28T02:48:27.979Z,-2.51
2017-01-28T02:49:38.653Z,-2.52
2017-01-28T02:50:49.328Z,-2.57
2017-01-28T02:51:59.995Z,-2.57
2017-01-28T02:53:10.672Z,-2.57
2017-01-28T02:54:20.950Z,-2.51
2017-01-28T02:55:31.220Z,-2.48
2017-01-28T02:56:41.496Z,-2.55
2017-01-28T02:57:52.164Z,-2.54
2017-01-28T02:59:02.840Z,-2.5
2017-01-28T03:00:13.127Z,-2.57
2017-01-28T03:01:23.809Z,-2.66
2017-01-28T03:02:34.477Z,-2.65
2017-01-28T03:03:44.754Z,-2.63
2017-01-28T03:04:55.042Z,-2.69
2017-01-28T03:06:05.716Z,-2.65
2017-01-28T03:07:15.594Z,-2.58
2017-01-28T03:08:26.276Z,-2.58
2017-01-28T03:09:36.954Z,-2.51
2017-01-28T03:10:47.625Z,-2.5
2017-01-28T03:11:58.308Z,-2.51
2017-01-28T03:13:09.009Z,-2.5
2017-01-28T03:14:19.284Z,-2.4
2017-01-28T03:15:29.972Z,-2.4
2017-01-28T03:16:40.650Z,-2.45
2017-01-28T03:17:51.342Z,-2.39
2017-01-28T03:19:02.021Z,-2.33
2017-01-28T03:20:12.698Z,-2.34
2017-01-28T03:21:23.365Z,-2.33
2017-01-28T03:22:34.032Z,-2.39
2017-01-28T03:23:44.702Z,-2.34
2017-01-28T03:24:55.367Z,-2.39
2017-01-28T03:26:06.032Z,-2.23
2017-01-28T03:27:16.307Z,-2.29
2017-01-28T03:28:26.981Z,-2.37
2017-01-28T03:29:37.659Z,-2.34
2017-01-28T03:30:48.338Z,-2.29
2017-01-28T03:31:59.013Z,-2.26
2017-01-28T03:33:09.296Z,-2.34
2017-01-28T03:34:19.965Z,-2.34
2017-01-28T03:35:30.638Z,-2.36
2017-01-28T03:36:41.307Z,-2.32
2017-01-28T03:37:51.585Z,-2.29
2017-01-28T03:39:02.259Z,-2.28
2017-01-28T03:40:12.531Z,-2.18
2017-01-28T03:41:22.807Z,-2.29
2017-01-28T03:42:33.482Z,-2.23
2017-01-28T03:43:43.754Z,-2.22
2017-01-28T03:44:54.429Z,-2.22
2017-01-28T03:46:05.103Z,-2.18
2017-01-28T03:47:15.782Z,-2.22
2017-01-28T03:48:26.803Z,-2.15
2017-01-28T03:49:37.486Z,-2.13
2017-01-28T03:50:48.157Z,-2.22
2017-01-28T03:51:58.822Z,-2.14
2017-01-28T03:53:09.524Z,-2.15
2017-01-28T03:54:19.415Z,-2.1
2017-01-28T03:55:30.092Z,-2.11
2017-01-28T03:56:40.765Z,-2.1
2017-01-28T03:57:51.445Z,-2.13
2017-01-28T03:59:02.117Z,-2.1
2017-01-28T04:00:12.791Z,-2
2017-01-28T04:01:23.463Z,-2.02
2017-01-28T04:02:34.138Z,-1.96
2017-01-28T04:03:44.816Z,-1.94
2017-01-28T04:04:55.491Z,-1.97
2017-01-28T04:06:06.176Z,-2.02
2017-01-28T04:07:16.850Z,-1.89
2017-01-28T04:08:27.533Z,-1.87
2017-01-28T04:09:38.211Z,-1.92
2017-01-28T04:10:48.885Z,-1.94
2017-01-28T04:11:59.553Z,-1.99
2017-01-28T04:13:09.439Z,-1.96
2017-01-28T04:14:20.120Z,-1.82
2017-01-28T04:15:30.792Z,-1.84
2017-01-28T04:16:41.465Z,-1.86
2017-01-28T04:17:52.136Z,-1.81
2017-01-28T04:19:02.805Z,-1.99
2017-01-28T04:20:13.080Z,-1.9
2017-01-28T04:21:23.757Z,-1.87
2017-01-28T04:22:34.440Z,-1.87
2017-01-28T04:23:45.113Z,-1.92
2017-01-28T04:24:55.808Z,-1.86
2017-01-28T04:26:06.480Z,-1.97
2017-01-28T04:27:16.361Z,-1.84
2017-01-28T04:28:27.034Z,-1.96
2017-01-28T04:29:37.742Z,-1.81
2017-01-28T04:30:48.418Z,-1.92
2017-01-28T04:31:58.694Z,-1.87
2017-01-28T04:33:08.570Z,-1.94
2017-01-28T04:34:19.251Z,-1.84
2017-01-28T04:35:29.928Z,-1.94
2017-01-28T04:36:40.600Z,-1.92
2017-01-28T04:37:51.275Z,-1.96
2017-01-28T04:39:01.951Z,-1.81
2017-01-28T04:40:12.629Z,-1.82
2017-01-28T04:41:22.902Z,-1.92
2017-01-28T04:42:33.572Z,-1.9
2017-01-28T04:43:44.244Z,-1.9
2017-01-28T04:44:54.918Z,-1.96
2017-01-28T04:46:05.587Z,-2
2017-01-28T04:47:15.071Z,-1.93
2017-01-28T04:48:25.747Z,-2
2017-01-28T04:49:36.421Z,-2.05
2017-01-28T04:50:46.695Z,-2
2017-01-28T04:51:57.403Z,-2.07
2017-01-28T04:53:08.072Z,-2.04
2017-01-28T04:54:18.347Z,-2.1
2017-01-28T04:55:29.017Z,-2.15
2017-01-28T04:56:39.692Z,-2.2
2017-01-28T04:57:49.964Z,-2.15
2017-01-28T04:59:00.636Z,-2.22
2017-01-28T05:00:10.915Z,-2.2
2017-01-28T05:01:21.586Z,-2.25
2017-01-28T05:02:32.271Z,-2.17
2017-01-28T05:03:42.952Z,-2.2
2017-01-28T05:04:53.625Z,-2.2
2017-01-28T05:06:04.295Z,-2.17
2017-01-28T05:07:14.172Z,-2.18
2017-01-28T05:08:24.877Z,-2.22
2017-01-28T05:09:35.149Z,-2.15
2017-01-28T05:10:45.416Z,-2.13
2017-01-28T05:11:56.102Z,-2.11
2017-01-28T05:13:06.803Z,-2.14
2017-01-28T05:14:16.689Z,-2.13
2017-01-28T05:15:27.391Z,-2.25
2017-01-28T05:16:38.065Z,-2.26
2017-01-28T05:17:48.739Z,-2.2
2017-01-28T05:18:59.043Z,-2.28
2017-01-28T05:20:09.315Z,-2.26
2017-01-28T05:21:19.590Z,-2.26
2017-01-28T05:22:30.264Z,-2.26
2017-01-28T05:23:40.945Z,-2.2
2017-01-28T05:24:51.222Z,-2.17
2017-01-28T05:26:01.886Z,-2.23
2017-01-28T05:27:12.161Z,-2.2
2017-01-28T05:28:22.831Z,-2.2
2017-01-28T05:29:33.506Z,-2.18
2017-01-28T05:30:44.187Z,-2.18
2017-01-28T05:31:54.863Z,-2.2
2017-01-28T05:33:05.539Z,-2.17
2017-01-28T05:34:16.210Z,-2.22
2017-01-28T05:35:26.892Z,-2.17
2017-01-28T05:36:37.570Z,-2.14
2017-01-28T05:37:47.845Z,-2.11
2017-01-28T05:38:58.558Z,-2.08
2017-01-28T05:40:08.437Z,-2.15
2017-01-28T05:41:19.105Z,-2.08
2017-01-28T05:42:29.784Z,-2.07
2017-01-28T05:43:40.454Z,-2.02
2017-01-28T05:44:51.133Z,-2.07
2017-01-28T05:46:01.808Z,-2.02
2017-01-28T05:47:12.080Z,-1.94
2017-01-28T05:48:22.758Z,-1.93
2017-01-28T05:49:33.433Z,-1.93
2017-01-28T05:50:44.105Z,-1.87
2017-01-28T05:51:54.787Z,-1.9
2017-01-28T05:53:05.451Z,-1.9
2017-01-28T05:54:16.125Z,-1.92
2017-01-28T05:55:26.794Z,-1.84
2017-01-28T05:56:37.464Z,-1.81
2017-01-28T05:57:48.131Z,-1.82
2017-01-28T05:58:58.808Z,-1.76
2017-01-28T06:00:09.485Z,-1.75
2017-01-28T06:01:19.766Z,-1.72
2017-01-28T06:02:30.441Z,-1.71
2017-01-28T06:03:41.117Z,-1.81
2017-01-28T06:04:51.788Z,-1.69
2017-01-28T06:06:02.468Z,-1.63
2017-01-28T06:07:12.742Z,-1.71
2017-01-28T06:08:23.024Z,-1.68
2017-01-28T06:09:33.295Z,-1.63
2017-01-28T06:10:43.571Z,-1.68
2017-01-28T06:11:54.253Z,-1.61
2017-01-28T06:13:04.927Z,-1.61
2017-01-28T06:14:15.227Z,-1.68
2017-01-28T06:15:25.898Z,-1.69
2017-01-28T06:16:36.610Z,-1.66
2017-01-28T06:17:46.885Z,-1.72
2017-01-28T06:18:57.561Z,-1.72
2017-01-28T06:20:07.850Z,-1.78
2017-01-28T06:21:17.758Z,-1.82
2017-01-28T06:22:28.429Z,-1.93
2017-01-28T06:23:38.708Z,-1.92
2017-01-28T06:24:49.376Z,-2
2017-01-28T06:26:00.046Z,-2.11
2017-01-28T06:27:10.431Z,-2.17
2017-01-28T06:28:21.100Z,-2.2
2017-01-28T06:29:31.773Z,-2.2
2017-01-28T06:30:42.447Z,-2.26
2017-01-28T06:31:53.116Z,-2.34
2017-01-28T06:33:03.388Z,-2.39
2017-01-28T06:34:13.670Z,-2.32
2017-01-28T06:35:24.372Z,-2.29
2017-01-28T06:36:35.042Z,-2.25
2017-01-28T06:37:45.714Z,-2.32
2017-01-28T06:38:55.602Z,-2.48
2017-01-28T06:40:06.276Z,-2.4
2017-01-28T06:41:16.949Z,-2.39
2017-01-28T06:42:27.616Z,-2.47
2017-01-28T06:43:38.291Z,-2.44
2017-01-28T06:44:48.969Z,-2.57
2017-01-28T06:45:59.646Z,-2.57
2017-01-28T06:47:09.927Z,-2.57
2017-01-28T06:48:19.809Z,-2.54
2017-01-28T06:49:30.482Z,-2.57
2017-01-28T06:50:41.159Z,-2.55
2017-01-28T06:51:51.834Z,-2.52
2017-01-28T06:53:02.503Z,-2.54
2017-01-28T06:54:13.182Z,-2.66
2017-01-28T06:55:23.848Z,-2.55
2017-01-28T06:56:34.529Z,-2.62
2017-01-28T06:57:45.209Z,-2.58
2017-01-28T06:58:55.878Z,-2.65
2017-01-28T07:00:06.551Z,-2.66
2017-01-28T07:01:16.829Z,-2.69
2017-01-28T07:02:27.503Z,-2.73
2017-01-28T07:03:38.210Z,-2.69
2017-01-28T07:04:48.880Z,-2.63
2017-01-28T07:05:59.556Z,-2.69
2017-01-28T07:07:10.235Z,-2.69
2017-01-28T07:08:20.907Z,-2.76
2017-01-28T07:09:31.186Z,-2.69
2017-01-28T07:10:41.864Z,-2.68
2017-01-28T07:11:52.536Z,-2.65
2017-01-28T07:13:03.211Z,-2.73
2017-01-28T07:14:13.493Z,-2.68
2017-01-28T07:15:24.165Z,-2.75
2017-01-28T07:16:34.831Z,-2.65
2017-01-28T07:17:45.512Z,-2.7
2017-01-28T07:18:56.188Z,-2.63
2017-01-28T07:20:07.144Z,-2.66
2017-01-28T07:21:17.815Z,-2.65
2017-01-28T07:22:28.486Z,-2.7
2017-01-28T07:23:38.766Z,-2.7
2017-01-28T07:24:49.436Z,-2.72
2017-01-28T07:26:00.116Z,-2.69
2017-01-28T07:27:10.401Z,-2.65
2017-01-28T07:28:20.676Z,-2.57
2017-01-28T07:29:31.341Z,-2.58
2017-01-28T07:30:42.013Z,-2.55
2017-01-28T07:31:52.687Z,-2.55
2017-01-28T07:33:03.355Z,-2.54
2017-01-28T07:34:14.034Z,-2.47
2017-01-28T07:35:24.704Z,-2.39
2017-01-28T07:36:35.383Z,-2.44
2017-01-28T07:37:46.051Z,-2.42
2017-01-28T07:38:56.329Z,-2.58
2017-01-28T07:40:07.000Z,-2.58
2017-01-28T07:41:17.278Z,-2.62
2017-01-28T07:42:27.949Z,-2.68
2017-01-28T07:43:38.624Z,-2.7
2017-01-28T07:44:49.297Z,-2.76
2017-01-28T07:45:59.570Z,-2.91
2017-01-28T07:47:09.449Z,-3.02
2017-01-28T07:48:20.120Z,-2.96
2017-01-28T07:49:30.793Z,-2.98
2017-01-28T07:50:41.467Z,-3.15
2017-01-28T07:51:52.147Z,-3.02
2017-01-28T07:53:02.819Z,-3.09
2017-01-28T07:54:13.492Z,-3.12
2017-01-28T07:55:23.772Z,-3.15
2017-01-28T07:56:34.448Z,-3.14
2017-01-28T07:57:45.127Z,-3.05
2017-01-28T07:58:55.821Z,-3.17
2017-01-28T08:00:06.099Z,-3.2
2017-01-28T08:01:16.375Z,-3.23
2017-01-28T08:02:27.035Z,-3.17
2017-01-28T08:03:37.710Z,-3.22
2017-01-28T08:04:48.383Z,-3.22
2017-01-28T08:05:59.047Z,-3.15
2017-01-28T08:07:09.320Z,-3.23
2017-01-28T08:08:19.985Z,-3.27
2017-01-28T08:09:30.654Z,-3.15
2017-01-28T08:10:41.324Z,-3.17
2017-01-28T08:11:51.989Z,-3.14
2017-01-28T08:13:02.291Z,-3.17
2017-01-28T08:14:12.599Z,-3.05
2017-01-28T08:15:22.875Z,-3.2
2017-01-28T08:16:33.547Z,-3.2
2017-01-28T08:17:44.222Z,-3.19
2017-01-28T08:18:54.899Z,-3.2
2017-01-28T08:20:05.203Z,-3.2
2017-01-28T08:21:15.505Z,-3.2
2017-01-28T08:22:26.175Z,-3.11
2017-01-28T08:23:36.850Z,-3.09
2017-01-28T08:24:47.123Z,-3.17
2017-01-28T08:25:57.797Z,-3.17
2017-01-28T08:27:08.072Z,-3.25
2017-01-28T08:28:18.740Z,-3.26
2017-01-28T08:29:29.418Z,-3.23
2017-01-28T08:30:40.093Z,-3.23
2017-01-28T08:31:50.767Z,-3.27
2017-01-28T08:33:01.439Z,-3.26
2017-01-28T08:34:11.718Z,-3.23
2017-01-28T08:35:22.389Z,-3.22
2017-01-28T08:36:33.061Z,-3.32
2017-01-28T08:37:43.732Z,-3.23
2017-01-28T08:38:54.394Z,-3.3
2017-01-28T08:40:04.672Z,-3.38
2017-01-28T08:41:15.351Z,-3.37
2017-01-28T08:42:26.048Z,-3.38
2017-01-28T08:43:36.729Z,-3.26
2017-01-28T08:44:47.406Z,-3.37
2017-01-28T08:45:58.102Z,-3.23
2017-01-28T08:47:08.775Z,-3.3
2017-01-28T08:48:19.042Z,-3.25
2017-01-28T08:49:29.717Z,-3.32
2017-01-28T08:50:40.389Z,-3.26
2017-01-28T08:51:51.064Z,-3.32
2017-01-28T08:53:01.336Z,-3.25
2017-01-28T08:54:12.004Z,-3.27
2017-01-28T08:55:22.681Z,-3.09
2017-01-28T08:56:32.959Z,-3.14
2017-01-28T08:57:43.643Z,-3.09
2017-01-28T08:58:54.320Z,-3.15
2017-01-28T09:00:04.991Z,-3.11
2017-01-28T09:01:15.697Z,-3.05
2017-01-28T09:02:26.362Z,-3.07
2017-01-28T09:03:37.032Z,-3.07
2017-01-28T09:04:47.705Z,-3.08
2017-01-28T09:05:57.982Z,-3.2
2017-01-28T09:07:08.650Z,-3.11
2017-01-28T09:08:19.324Z,-3.12
2017-01-28T09:09:29.994Z,-3.07
2017-01-28T09:10:39.869Z,-3.14
2017-01-28T09:11:50.541Z,-3.15
2017-01-28T09:13:01.231Z,-3.27
2017-01-28T09:14:11.527Z,-3.27
2017-01-28T09:15:22.196Z,-3.23
2017-01-28T09:16:32.865Z,-3.37
2017-01-28T09:17:43.143Z,-3.38
2017-01-28T09:18:53.840Z,-3.3
2017-01-28T09:20:04.517Z,-3.33
2017-01-28T09:21:14.803Z,-3.4
2017-01-28T09:22:25.472Z,-3.4
2017-01-28T09:23:36.149Z,-3.4
2017-01-28T09:24:46.816Z,-3.36
2017-01-28T09:25:57.485Z,-3.22
2017-01-28T09:27:08.150Z,-3.29
2017-01-28T09:28:18.829Z,-3.22
2017-01-28T09:29:29.499Z,-3.26
2017-01-28T09:30:39.767Z,-3.2
2017-01-28T09:31:50.043Z,-3.3
2017-01-28T09:33:00.313Z,-3.32
2017-01-28T09:34:10.195Z,-3.27
2017-01-28T09:35:20.859Z,-3.2
2017-01-28T09:36:31.561Z,-3.15
2017-01-28T09:37:42.240Z,-3.23
2017-01-28T09:38:52.924Z,-3.17
2017-01-28T09:40:03.199Z,-3.2
2017-01-28T09:41:13.875Z,-3.2
2017-01-28T09:42:24.154Z,-3.26
2017-01-28T09:43:34.832Z,-3.14
2017-01-28T09:44:45.498Z,-3.08
2017-01-28T09:45:56.172Z,-3.12
2017-01-28T09:47:06.842Z,-3.14
2017-01-28T09:48:17.150Z,-3.2
2017-01-28T09:49:27.819Z,-3.22
2017-01-28T09:50:38.497Z,-3.25
2017-01-28T09:51:49.174Z,-3.26
2017-01-28T09:52:59.851Z,-3.2
2017-01-28T09:54:10.129Z,-3.23
2017-01-28T09:55:20.804Z,-3.3
2017-01-28T09:56:31.085Z,-3.38
2017-01-28T09:57:41.786Z,-3.41
2017-01-28T09:58:52.481Z,-3.4
2017-01-28T10:00:03.147Z,-3.4
2017-01-28T10:01:13.417Z,-3.38
2017-01-28T10:02:23.689Z,-3.46
2017-01-28T10:03:33.959Z,-3.4
2017-01-28T10:04:44.226Z,-3.37
2017-01-28T10:05:54.894Z,-3.4
2017-01-28T10:07:05.567Z,-3.44
2017-01-28T10:08:15.839Z,-3.41
2017-01-28T10:09:26.502Z,-3.43
2017-01-28T10:10:37.172Z,-3.37
2017-01-28T10:11:47.841Z,-3.36
2017-01-28T10:12:58.523Z,-3.41
2017-01-28T10:14:08.799Z,-3.4
2017-01-28T10:15:19.477Z,-3.38
2017-01-28T10:16:30.146Z,-3.41
2017-01-28T10:17:40.817Z,-3.4
2017-01-28T10:18:51.484Z,-3.38
2017-01-28T10:20:01.761Z,-3.4
2017-01-28T10:21:12.037Z,-3.41
2017-01-28T10:22:22.705Z,-3.4
2017-01-28T10:23:33.382Z,-3.4
2017-01-28T10:24:44.054Z,-3.43
2017-01-28T10:25:54.723Z,-3.41
2017-01-28T10:27:05.392Z,-3.38
2017-01-28T10:28:15.670Z,-3.46
2017-01-28T10:29:26.343Z,-3.4
2017-01-28T10:30:37.011Z,-3.36
2017-01-28T10:31:47.684Z,-3.41
2017-01-28T10:32:58.364Z,-3.36
2017-01-28T10:34:09.086Z,-3.4
2017-01-28T10:35:19.385Z,-3.43
2017-01-28T10:36:30.056Z,-3.38
2017-01-28T10:37:40.328Z,-3.43
2017-01-28T10:38:51.023Z,-3.4
2017-01-28T10:40:01.298Z,-3.41
2017-01-28T10:41:10.782Z,-3.44
2017-01-28T10:42:21.453Z,-3.4
2017-01-28T10:43:31.724Z,-3.38
2017-01-28T10:44:42.001Z,-3.38
2017-01-28T10:45:52.680Z,-3.38
2017-01-28T10:47:03.352Z,-3.33
2017-01-28T10:48:13.231Z,-3.37
2017-01-28T10:49:23.502Z,-3.4
2017-01-28T10:50:34.174Z,-3.4
2017-01-28T10:51:44.851Z,-3.4
2017-01-28T10:52:55.526Z,-3.37
2017-01-28T10:54:06.203Z,-3.41
2017-01-28T10:55:16.077Z,-3.36
2017-01-28T10:56:26.350Z,-3.43
2017-01-28T10:57:37.017Z,-3.4
2017-01-28T10:58:47.686Z,-3.4
2017-01-28T10:59:58.358Z,-3.33
2017-01-28T11:01:09.033Z,-3.32
2017-01-28T11:02:18.912Z,-3.4
2017-01-28T11:03:29.588Z,-3.38
2017-01-28T11:04:40.276Z,-3.36
2017-01-28T11:05:50.950Z,-3.38
2017-01-28T11:07:01.623Z,-3.41
2017-01-28T11:08:11.903Z,-3.44
2017-01-28T11:09:22.177Z,-3.33
2017-01-28T11:10:32.846Z,-3.37
2017-01-28T11:11:43.519Z,-3.37
2017-01-28T11:12:53.798Z,-3.41
2017-01-28T11:14:04.470Z,-3.4
2017-01-28T11:15:15.138Z,-3.37
2017-01-28T11:16:25.809Z,-3.29
2017-01-28T11:17:36.480Z,-3.3
2017-01-28T11:18:47.145Z,-3.29
2017-01-28T11:19:57.822Z,-3.29
2017-01-28T11:21:08.499Z,-3.32
2017-01-28T11:22:19.172Z,-3.32
2017-01-28T11:23:29.837Z,-3.23
2017-01-28T11:24:40.113Z,-3.25
2017-01-28T11:25:50.811Z,-3.3
2017-01-28T11:27:01.483Z,-3.25
2017-01-28T11:28:12.152Z,-3.23
2017-01-28T11:29:22.426Z,-3.27
2017-01-28T11:30:33.101Z,-3.23
2017-01-28T11:31:43.775Z,-3.29
2017-01-28T11:32:54.451Z,-3.3
2017-01-28T11:34:04.763Z,-3.25
2017-01-28T11:35:15.436Z,-3.22
2017-01-28T11:36:26.108Z,-3.3
2017-01-28T11:37:36.385Z,-3.22
2017-01-28T11:38:47.056Z,-3.3
2017-01-28T11:39:57.726Z,-3.27
2017-01-28T11:41:08.395Z,-3.22
2017-01-28T11:42:18.273Z,-3.23
2017-01-28T11:43:28.947Z,-3.26
2017-01-28T11:44:39.615Z,-3.22
2017-01-28T11:45:50.284Z,-3.26
2017-01-28T11:47:00.958Z,-3.23
2017-01-28T11:48:11.628Z,-3.26
2017-01-28T11:49:22.303Z,-3.2
2017-01-28T11:50:32.971Z,-3.15
2017-01-28T11:51:43.647Z,-3.08
2017-01-28T11:52:53.930Z,-3.11
2017-01-28T11:54:04.602Z,-3.05
2017-01-28T11:55:14.501Z,-3.05
2017-01-28T11:56:25.182Z,-3.09
2017-01-28T11:57:35.849Z,-3.02
2017-01-28T11:58:46.555Z,-2.93
2017-01-28T11:59:56.828Z,-2.99
2017-01-28T12:01:07.109Z,-3.02
2017-01-28T12:02:17.786Z,-3.04
2017-01-28T12:03:28.461Z,-3.02
2017-01-28T12:04:39.134Z,-3.02
2017-01-28T12:05:49.815Z,-3.01
2017-01-28T12:07:00.488Z,-3.15
2017-01-28T12:08:11.158Z,-3.02
2017-01-28T12:09:21.826Z,-3.09
2017-01-28T12:10:32.506Z,-3.05
2017-01-28T12:11:43.178Z,-3.09
2017-01-28T12:12:53.877Z,-3.08
2017-01-28T12:14:04.800Z,-3.14
2017-01-28T12:15:14.275Z,-3.2
2017-01-28T12:16:24.958Z,-3.2
2017-01-28T12:17:35.635Z,-3.2
2017-01-28T12:18:46.313Z,-3.15
2017-01-28T12:19:56.989Z,-3.2
2017-01-28T12:21:07.657Z,-3.11
2017-01-28T12:22:17.928Z,-3.11
2017-01-28T12:23:28.595Z,-3.11
2017-01-28T12:24:39.261Z,-3.19
2017-01-28T12:25:49.932Z,-3.11
2017-01-28T12:27:00.611Z,-3.12
2017-01-28T12:28:10.886Z,-3.15
2017-01-28T12:29:21.555Z,-3.08
2017-01-28T12:30:32.234Z,-3.11
2017-01-28T12:31:42.901Z,-3.02
2017-01-28T12:32:53.176Z,-3.09
2017-01-28T12:34:03.462Z,-3.2
2017-01-28T12:35:14.135Z,-3.19
2017-01-28T12:36:24.839Z,-3.17
2017-01-28T12:37:35.513Z,-3.26
2017-01-28T12:38:46.206Z,-3.3
2017-01-28T12:39:56.880Z,-3.25
2017-01-28T12:41:07.554Z,-3.32
2017-01-28T12:42:17.423Z,-3.36
2017-01-28T12:43:28.090Z,-3.32
2017-01-28T12:44:38.367Z,-3.38
2017-01-28T12:45:49.036Z,-3.38
2017-01-28T12:46:59.718Z,-3.4
2017-01-28T12:48:10.025Z,-3.43
2017-01-28T12:49:20.699Z,-3.4
2017-01-28T12:50:31.368Z,-3.36
2017-01-28T12:51:42.033Z,-3.41
2017-01-28T12:52:52.706Z,-3.43
2017-01-28T12:54:03.383Z,-3.44
2017-01-28T12:55:12.888Z,-3.2
2017-01-28T12:56:23.166Z,-3.4
2017-01-28T12:57:33.842Z,-3.27
2017-01-28T12:58:44.549Z,-3.33
2017-01-28T12:59:55.229Z,-3.36
2017-01-28T13:01:05.893Z,-3.4
2017-01-28T13:02:15.771Z,-3.36
2017-01-28T13:03:26.438Z,-3.22
2017-01-28T13:04:36.714Z,-3.4
2017-01-28T13:05:47.398Z,-3.38
2017-01-28T13:06:58.072Z,-3.38
2017-01-28T13:08:08.743Z,-3.4
2017-01-28T13:09:19.022Z,-3.37
2017-01-28T13:10:29.690Z,-3.4
2017-01-28T13:11:40.362Z,-3.43
2017-01-28T13:12:51.032Z,-3.36
2017-01-28T13:14:01.715Z,-3.41
2017-01-28T13:15:11.988Z,-3.29
2017-01-28T13:16:22.263Z,-3.25
2017-01-28T13:17:32.545Z,-3.41
2017-01-28T13:18:43.250Z,-3.33
2017-01-28T13:19:53.923Z,-3.37
2017-01-28T13:21:04.603Z,-3.38
2017-01-28T13:22:15.267Z,-3.41
2017-01-28T13:23:25.945Z,-3.36
2017-01-28T13:24:36.628Z,-3.4
2017-01-28T13:25:47.319Z,-3.44
2017-01-28T13:26:58.029Z,-3.41
2017-01-28T13:28:08.703Z,-3.36
2017-01-28T13:29:18.984Z,-3.29
2017-01-28T13:30:29.678Z,-3.37
2017-01-28T13:31:39.564Z,-3.14
2017-01-28T13:32:50.236Z,-3.19
2017-01-28T13:34:00.912Z,-3.14
2017-01-28T13:35:11.581Z,-3.2
2017-01-28T13:36:21.882Z,-3.14
2017-01-28T13:37:32.560Z,-3.17
2017-01-28T13:38:43.235Z,-3.27
2017-01-28T13:39:53.508Z,-3.25
2017-01-28T13:41:04.184Z,-3.26
2017-01-28T13:42:14.854Z,-3.37
2017-01-28T13:43:25.527Z,-3.38
2017-01-28T13:44:35.800Z,-3.41
2017-01-28T13:45:46.472Z,-3.4
2017-01-28T13:46:57.141Z,-3.38
2017-01-28T13:48:07.425Z,-3.4
2017-01-28T13:49:18.095Z,-3.4
2017-01-28T13:50:28.765Z,-3.32
2017-01-28T13:51:39.431Z,-3.43
2017-01-28T13:52:50.102Z,-3.44
2017-01-28T13:54:00.775Z,-3.41
2017-01-28T13:55:11.440Z,-3.44
2017-01-28T13:56:22.140Z,-3.46
2017-01-28T13:57:32.854Z,-3.41
2017-01-28T13:58:43.522Z,-3.46
2017-01-28T13:59:54.196Z,-3.46
2017-01-28T14:01:04.870Z,-3.44
2017-01-28T14:02:15.538Z,-3.46
2017-01-28T14:03:26.213Z,-3.5
2017-01-28T14:04:36.488Z,-3.37
2017-01-28T14:05:47.158Z,-3.37
2017-01-28T14:06:57.830Z,-3.32
2017-01-28T14:08:08.106Z,-3.36
2017-01-28T14:09:18.775Z,-3.4
2017-01-28T14:10:29.447Z,-3.37
2017-01-28T14:11:40.115Z,-3.43
2017-01-28T14:12:50.782Z,-3.4
2017-01-28T14:14:01.458Z,-3.37
2017-01-28T14:15:12.131Z,-3.44
2017-01-28T14:16:22.805Z,-3.33
2017-01-28T14:17:33.469Z,-3.32
2017-01-28T14:18:44.139Z,-3.38
2017-01-28T14:19:54.807Z,-3.46
2017-01-28T14:21:05.082Z,-3.37
2017-01-28T14:22:15.366Z,-3.4
2017-01-28T14:23:26.041Z,-3.44
2017-01-28T14:24:36.730Z,-3.4
2017-01-28T14:25:47.400Z,-3.4
2017-01-28T14:26:58.078Z,-3.29
2017-01-28T14:28:08.753Z,-3.33
2017-01-28T14:29:19.027Z,-3.41
2017-01-28T14:30:29.695Z,-3.4
2017-01-28T14:31:40.365Z,-3.3
2017-01-28T14:32:51.032Z,-3.25
2017-01-28T14:34:01.710Z,-3.33
2017-01-28T14:35:12.386Z,-3.3
2017-01-28T14:36:22.668Z,-3.29
2017-01-28T14:37:33.348Z,-3.2
2017-01-28T14:38:44.016Z,-3.26
2017-01-28T14:39:54.688Z,-3.3
2017-01-28T14:41:05.360Z,-3.23
2017-01-28T14:42:15.634Z,-3.25
2017-01-28T14:43:26.304Z,-3.25
2017-01-28T14:44:36.975Z,-3.32
2017-01-28T14:45:47.643Z,-3.32
2017-01-28T14:46:58.318Z,-3.22
2017-01-28T14:48:08.621Z,-3.29
2017-01-28T14:49:18.894Z,-3.2
2017-01-28T14:50:29.563Z,-3.09
2017-01-28T14:51:40.238Z,-3.05
2017-01-28T14:52:50.912Z,-3.02
2017-01-28T14:54:01.583Z,-2.94
2017-01-28T14:55:11.861Z,-3.07
2017-01-28T14:56:22.531Z,-3.07
2017-01-28T14:57:33.208Z,-3.07
2017-01-28T14:58:43.898Z,-3.14
2017-01-28T14:59:54.572Z,-3.14
2017-01-28T15:01:05.238Z,-3.15
2017-01-28T15:02:15.519Z,-3.2
2017-01-28T15:03:26.197Z,-3.17
2017-01-28T15:04:36.876Z,-3.09
2017-01-28T15:05:47.544Z,-3.14
2017-01-28T15:06:58.216Z,-3.17
2017-01-28T15:08:08.495Z,-3.17
2017-01-28T15:09:19.165Z,-3.22
2017-01-28T15:10:29.836Z,-3.23
2017-01-28T15:11:40.504Z,-3.19
2017-01-28T15:12:51.167Z,-3.2
2017-01-28T15:14:01.442Z,-3.11